sensor_id;sensor_type;location;lat;lon;timestamp;pressure;altitude;pressure_sealevel;temperature;humidity
64551;BME280;50945;44.472;-123.352;2022-11-15T00:00:57;101223.28;;;8.42;77.58
64551;BME280;50945;44.472;-123.352;2022-11-15T00:03:25;101223.63;;;8.38;77.64
64551;BME280;50945;44.472;-123.352;2022-11-15T00:06:00;101216.59;;;8.36;77.61
64551;BME280;50945;44.472;-123.352;2022-11-15T00:08:30;101224.19;;;8.32;78.17
64551;BME280;50945;44.472;-123.352;2022-11-15T00:10:57;101214.63;;;8.28;78.18
64551;BME280;50945;44.472;-123.352;2022-11-15T00:13:24;101216.06;;;8.23;78.46
64551;BME280;50945;44.472;-123.352;2022-11-15T00:15:51;101213.94;;;8.16;79.04
64551;BME280;50945;44.472;-123.352;2022-11-15T00:18:18;101210.78;;;8.11;79.10
64551;BME280;50945;44.472;-123.352;2022-11-15T00:20:44;101211.38;;;8.05;79.21
64551;BME280;50945;44.472;-123.352;2022-11-15T00:23:11;101216.41;;;8.00;79.36
64551;BME280;50945;44.472;-123.352;2022-11-15T00:25:38;101222.44;;;7.94;79.42
64551;BME280;50945;44.472;-123.352;2022-11-15T00:28:04;101220.44;;;7.86;79.78
64551;BME280;50945;44.472;-123.352;2022-11-15T00:30:31;101224.75;;;7.79;79.92
64551;BME280;50945;44.472;-123.352;2022-11-15T00:33:02;101231.94;;;7.70;80.69
64551;BME280;50945;44.472;-123.352;2022-11-15T00:35:30;101226.50;;;7.60;80.80
64551;BME280;50945;44.472;-123.352;2022-11-15T00:37:57;101233.09;;;7.48;80.63
64551;BME280;50945;44.472;-123.352;2022-11-15T00:40:23;101235.81;;;7.38;80.87
64551;BME280;50945;44.472;-123.352;2022-11-15T00:42:50;101231.09;;;7.31;81.57
64551;BME280;50945;44.472;-123.352;2022-11-15T00:45:16;101238.22;;;7.22;81.71
64551;BME280;50945;44.472;-123.352;2022-11-15T00:47:46;101236.38;;;7.13;82.07
64551;BME280;50945;44.472;-123.352;2022-11-15T00:50:13;101244.50;;;7.03;82.01
64551;BME280;50945;44.472;-123.352;2022-11-15T00:52:39;101240.88;;;6.93;82.36
64551;BME280;50945;44.472;-123.352;2022-11-15T00:55:06;101247.59;;;6.89;82.61
64551;BME280;50945;44.472;-123.352;2022-11-15T00:57:33;101245.47;;;6.82;82.79
64551;BME280;50945;44.472;-123.352;2022-11-15T00:59:59;101242.44;;;6.76;82.54
64551;BME280;50945;44.472;-123.352;2022-11-15T01:02:25;101243.13;;;6.68;82.70
64551;BME280;50945;44.472;-123.352;2022-11-15T01:04:52;101250.84;;;6.63;82.98
64551;BME280;50945;44.472;-123.352;2022-11-15T01:07:18;101242.22;;;6.58;83.10
64551;BME280;50945;44.472;-123.352;2022-11-15T01:09:44;101245.22;;;6.55;82.91
64551;BME280;50945;44.472;-123.352;2022-11-15T01:12:11;101239.31;;;6.50;83.01
64551;BME280;50945;44.472;-123.352;2022-11-15T01:14:37;101242.47;;;6.45;83.12
64551;BME280;50945;44.472;-123.352;2022-11-15T01:17:04;101248.31;;;6.40;83.27
64551;BME280;50945;44.472;-123.352;2022-11-15T01:19:30;101248.81;;;6.34;83.02
64551;BME280;50945;44.472;-123.352;2022-11-15T01:21:57;101246.53;;;6.30;83.19
64551;BME280;50945;44.472;-123.352;2022-11-15T01:24:23;101255.19;;;6.23;82.91
64551;BME280;50945;44.472;-123.352;2022-11-15T01:26:50;101251.19;;;6.18;83.33
64551;BME280;50945;44.472;-123.352;2022-11-15T01:29:16;101252.72;;;6.11;83.20
64551;BME280;50945;44.472;-123.352;2022-11-15T01:31:43;101253.50;;;6.01;83.44
64551;BME280;50945;44.472;-123.352;2022-11-15T01:34:12;101253.44;;;5.92;83.50
64551;BME280;50945;44.472;-123.352;2022-11-15T01:36:39;101250.38;;;5.85;83.30
64551;BME280;50945;44.472;-123.352;2022-11-15T01:39:05;101261.75;;;5.79;83.40
64551;BME280;50945;44.472;-123.352;2022-11-15T01:41:33;101260.44;;;5.73;83.45
64551;BME280;50945;44.472;-123.352;2022-11-15T01:46:58;101261.13;;;5.54;83.56
64551;BME280;50945;44.472;-123.352;2022-11-15T01:49:27;101264.63;;;5.45;83.69
64551;BME280;50945;44.472;-123.352;2022-11-15T01:51:57;101266.13;;;5.38;83.86
64551;BME280;50945;44.472;-123.352;2022-11-15T01:54:24;101267.75;;;5.29;83.88
64551;BME280;50945;44.472;-123.352;2022-11-15T01:56:57;101266.69;;;5.20;83.74
64551;BME280;50945;44.472;-123.352;2022-11-15T01:59:26;101264.72;;;5.11;84.08
64551;BME280;50945;44.472;-123.352;2022-11-15T02:01:52;101271.53;;;5.05;83.98
64551;BME280;50945;44.472;-123.352;2022-11-15T02:04:20;101279.06;;;5.02;84.03
64551;BME280;50945;44.472;-123.352;2022-11-15T02:06:49;101279.28;;;4.99;83.86
64551;BME280;50945;44.472;-123.352;2022-11-15T02:09:17;101284.84;;;4.97;83.69
64551;BME280;50945;44.472;-123.352;2022-11-15T02:11:44;101281.41;;;4.95;84.06
64551;BME280;50945;44.472;-123.352;2022-11-15T02:14:11;101281.91;;;4.89;84.02
64551;BME280;50945;44.472;-123.352;2022-11-15T02:25:57;101295.56;;;4.76;83.36
64551;BME280;50945;44.472;-123.352;2022-11-15T02:28:48;101304.09;;;4.71;83.33
64551;BME280;50945;44.472;-123.352;2022-11-15T02:39:43;101310.97;;;4.30;84.64
64551;BME280;50945;44.472;-123.352;2022-11-15T02:42:23;101312.16;;;4.26;84.75
64551;BME280;50945;44.472;-123.352;2022-11-15T02:45:13;101313.03;;;4.27;84.85
64551;BME280;50945;44.472;-123.352;2022-11-15T02:47:45;101315.38;;;4.31;84.74
64551;BME280;50945;44.472;-123.352;2022-11-15T02:50:17;101309.00;;;4.32;84.31
64551;BME280;50945;44.472;-123.352;2022-11-15T02:52:51;101313.41;;;4.33;84.14
64551;BME280;50945;44.472;-123.352;2022-11-15T03:00:45;101318.97;;;4.43;83.34
64551;BME280;50945;44.472;-123.352;2022-11-15T03:06:14;101324.63;;;4.40;83.15
64551;BME280;50945;44.472;-123.352;2022-11-15T03:08:55;101319.44;;;4.37;83.06
64551;BME280;50945;44.472;-123.352;2022-11-15T03:11:23;101328.56;;;4.36;83.18
64551;BME280;50945;44.472;-123.352;2022-11-15T03:14:07;101329.53;;;4.35;83.08
64551;BME280;50945;44.472;-123.352;2022-11-15T03:16:46;101331.50;;;4.33;82.89
64551;BME280;50945;44.472;-123.352;2022-11-15T03:21:55;101335.06;;;4.33;82.23
64551;BME280;50945;44.472;-123.352;2022-11-15T03:24:25;101343.81;;;4.37;82.12
64551;BME280;50945;44.472;-123.352;2022-11-15T03:26:55;101358.09;;;4.39;82.01
64551;BME280;50945;44.472;-123.352;2022-11-15T03:29:29;101357.59;;;4.34;81.68
64551;BME280;50945;44.472;-123.352;2022-11-15T03:32:06;101358.31;;;4.25;82.14
64551;BME280;50945;44.472;-123.352;2022-11-15T03:34:41;101356.31;;;4.15;82.07
64551;BME280;50945;44.472;-123.352;2022-11-15T03:37:11;101361.09;;;4.12;82.37
64551;BME280;50945;44.472;-123.352;2022-11-15T03:39:40;101365.88;;;4.08;82.30
64551;BME280;50945;44.472;-123.352;2022-11-15T03:47:23;101368.84;;;4.05;82.42
64551;BME280;50945;44.472;-123.352;2022-11-15T03:49:53;101379.66;;;4.05;82.13
64551;BME280;50945;44.472;-123.352;2022-11-15T03:52:23;101380.63;;;4.04;82.34
64551;BME280;50945;44.472;-123.352;2022-11-15T03:54:54;101384.09;;;4.06;82.12
64551;BME280;50945;44.472;-123.352;2022-11-15T03:57:22;101391.25;;;4.07;81.93
64551;BME280;50945;44.472;-123.352;2022-11-15T03:59:48;101393.94;;;4.07;82.00
64551;BME280;50945;44.472;-123.352;2022-11-15T04:02:15;101386.78;;;4.06;81.65
64551;BME280;50945;44.472;-123.352;2022-11-15T04:04:42;101394.91;;;4.06;81.33
64551;BME280;50945;44.472;-123.352;2022-11-15T04:07:08;101391.69;;;4.01;81.21
64551;BME280;50945;44.472;-123.352;2022-11-15T04:09:35;101401.25;;;3.94;81.47
64551;BME280;50945;44.472;-123.352;2022-11-15T04:12:20;101406.41;;;3.86;80.90
64551;BME280;50945;44.472;-123.352;2022-11-15T04:15:02;101412.88;;;3.83;81.75
64551;BME280;50945;44.472;-123.352;2022-11-15T04:17:44;101418.19;;;3.85;81.57
64551;BME280;50945;44.472;-123.352;2022-11-15T04:20:25;101418.69;;;3.90;81.59
64551;BME280;50945;44.472;-123.352;2022-11-15T04:23:22;101419.44;;;3.92;80.59
64551;BME280;50945;44.472;-123.352;2022-11-15T04:26:14;101426.19;;;3.86;80.48
64551;BME280;50945;44.472;-123.352;2022-11-15T04:28:42;101428.25;;;3.83;81.44
64551;BME280;50945;44.472;-123.352;2022-11-15T04:31:27;101426.19;;;3.86;81.40
64551;BME280;50945;44.472;-123.352;2022-11-15T04:33:54;101441.09;;;3.92;80.88
64551;BME280;50945;44.472;-123.352;2022-11-15T04:36:21;101431.75;;;3.96;80.91
64551;BME280;50945;44.472;-123.352;2022-11-15T04:39:05;101441.28;;;4.02;80.65
64551;BME280;50945;44.472;-123.352;2022-11-15T04:41:32;101442.75;;;4.06;80.13
64551;BME280;50945;44.472;-123.352;2022-11-15T04:43:58;101440.06;;;4.06;80.15
64551;BME280;50945;44.472;-123.352;2022-11-15T04:46:25;101450.03;;;4.05;79.92
64551;BME280;50945;44.472;-123.352;2022-11-15T04:48:52;101455.44;;;4.05;80.00
64551;BME280;50945;44.472;-123.352;2022-11-15T04:51:20;101453.91;;;4.01;79.51
64551;BME280;50945;44.472;-123.352;2022-11-15T04:53:46;101464.84;;;3.99;79.51
64551;BME280;50945;44.472;-123.352;2022-11-15T04:56:13;101462.41;;;3.96;79.74
64551;BME280;50945;44.472;-123.352;2022-11-15T04:58:39;101469.00;;;3.92;79.70
64551;BME280;50945;44.472;-123.352;2022-11-15T05:01:15;101469.34;;;3.88;80.10
64551;BME280;50945;44.472;-123.352;2022-11-15T05:03:42;101474.13;;;3.84;80.13
64551;BME280;50945;44.472;-123.352;2022-11-15T05:06:27;101467.34;;;3.78;79.79
64551;BME280;50945;44.472;-123.352;2022-11-15T05:08:54;101476.53;;;3.76;79.96
64551;BME280;50945;44.472;-123.352;2022-11-15T05:11:21;101474.94;;;3.73;80.25
64551;BME280;50945;44.472;-123.352;2022-11-15T05:13:48;101476.84;;;3.71;79.84
64551;BME280;50945;44.472;-123.352;2022-11-15T05:16:14;101477.00;;;3.70;79.78
64551;BME280;50945;44.472;-123.352;2022-11-15T05:18:41;101473.50;;;3.68;79.50
64551;BME280;50945;44.472;-123.352;2022-11-15T05:21:10;101476.22;;;3.68;79.49
64551;BME280;50945;44.472;-123.352;2022-11-15T05:23:37;101483.47;;;3.67;79.69
64551;BME280;50945;44.472;-123.352;2022-11-15T05:26:05;101484.47;;;3.66;79.69
64551;BME280;50945;44.472;-123.352;2022-11-15T05:28:33;101489.09;;;3.64;79.59
64551;BME280;50945;44.472;-123.352;2022-11-15T05:31:11;101486.00;;;3.57;78.87
64551;BME280;50945;44.472;-123.352;2022-11-15T05:33:42;101500.50;;;3.56;79.31
64551;BME280;50945;44.472;-123.352;2022-11-15T05:36:26;101489.88;;;3.53;79.18
64551;BME280;50945;44.472;-123.352;2022-11-15T05:38:53;101500.94;;;3.50;79.10
64551;BME280;50945;44.472;-123.352;2022-11-15T05:41:32;101502.22;;;3.45;79.52
64551;BME280;50945;44.472;-123.352;2022-11-15T05:44:01;101500.84;;;3.39;79.66
64551;BME280;50945;44.472;-123.352;2022-11-15T05:46:29;101505.50;;;3.37;79.32
64551;BME280;50945;44.472;-123.352;2022-11-15T05:48:59;101503.78;;;3.36;79.26
64551;BME280;50945;44.472;-123.352;2022-11-15T05:51:28;101511.91;;;3.36;79.29
64551;BME280;50945;44.472;-123.352;2022-11-15T05:53:56;101505.59;;;3.35;79.35
64551;BME280;50945;44.472;-123.352;2022-11-15T05:56:25;101507.34;;;3.36;79.55
64551;BME280;50945;44.472;-123.352;2022-11-15T05:58:52;101509.41;;;3.33;78.10
64551;BME280;50945;44.472;-123.352;2022-11-15T06:01:19;101514.28;;;3.28;79.47
64551;BME280;50945;44.472;-123.352;2022-11-15T06:03:46;101519.88;;;3.24;79.22
64551;BME280;50945;44.472;-123.352;2022-11-15T06:06:13;101522.69;;;3.23;79.01
64551;BME280;50945;44.472;-123.352;2022-11-15T06:08:39;101522.69;;;3.23;78.99
64551;BME280;50945;44.472;-123.352;2022-11-15T06:11:06;101529.09;;;3.22;78.96
64551;BME280;50945;44.472;-123.352;2022-11-15T06:13:33;101535.44;;;3.21;79.69
64551;BME280;50945;44.472;-123.352;2022-11-15T06:16:00;101531.03;;;3.20;79.29
64551;BME280;50945;44.472;-123.352;2022-11-15T06:18:27;101521.41;;;3.16;79.49
64551;BME280;50945;44.472;-123.352;2022-11-15T06:20:54;101527.16;;;3.11;79.31
64551;BME280;50945;44.472;-123.352;2022-11-15T06:23:28;101531.00;;;3.07;79.25
64551;BME280;50945;44.472;-123.352;2022-11-15T06:26:02;101528.56;;;3.04;79.28
64551;BME280;50945;44.472;-123.352;2022-11-15T06:28:30;101525.94;;;3.02;79.75
64551;BME280;50945;44.472;-123.352;2022-11-15T06:33:31;101533.41;;;2.99;79.56
64551;BME280;50945;44.472;-123.352;2022-11-15T06:36:04;101539.75;;;2.98;79.46
64551;BME280;50945;44.472;-123.352;2022-11-15T06:38:31;101535.34;;;2.97;79.15
64551;BME280;50945;44.472;-123.352;2022-11-15T06:41:07;101539.00;;;2.96;79.43
64551;BME280;50945;44.472;-123.352;2022-11-15T06:43:34;101539.00;;;2.96;79.85
64551;BME280;50945;44.472;-123.352;2022-11-15T06:46:02;101541.81;;;2.94;79.25
64551;BME280;50945;44.472;-123.352;2022-11-15T06:48:29;101540.97;;;2.94;79.15
64551;BME280;50945;44.472;-123.352;2022-11-15T06:50:58;101545.38;;;2.95;78.93
64551;BME280;50945;44.472;-123.352;2022-11-15T06:53:26;101545.38;;;2.95;79.28
64551;BME280;50945;44.472;-123.352;2022-11-15T06:55:53;101546.25;;;2.95;79.42
64551;BME280;50945;44.472;-123.352;2022-11-15T06:58:21;101552.53;;;2.96;79.17
64551;BME280;50945;44.472;-123.352;2022-11-15T07:00:47;101540.84;;;2.95;78.73
64551;BME280;50945;44.472;-123.352;2022-11-15T07:03:13;101540.22;;;2.92;78.67
64551;BME280;50945;44.472;-123.352;2022-11-15T07:05:40;101544.06;;;2.88;78.95
64551;BME280;50945;44.472;-123.352;2022-11-15T07:08:06;101551.53;;;2.84;78.80
64551;BME280;50945;44.472;-123.352;2022-11-15T07:10:32;101546.44;;;2.79;79.11
64551;BME280;50945;44.472;-123.352;2022-11-15T07:12:59;101550.22;;;2.77;79.51
64551;BME280;50945;44.472;-123.352;2022-11-15T07:15:25;101552.50;;;2.70;79.00
64551;BME280;50945;44.472;-123.352;2022-11-15T07:17:52;101560.13;;;2.63;78.83
64551;BME280;50945;44.472;-123.352;2022-11-15T07:20:18;101559.56;;;2.58;79.00
64551;BME280;50945;44.472;-123.352;2022-11-15T07:22:45;101562.66;;;2.52;79.17
64551;BME280;50945;44.472;-123.352;2022-11-15T07:25:11;101568.50;;;2.46;79.24
64551;BME280;50945;44.472;-123.352;2022-11-15T07:27:38;101570.53;;;2.42;79.47
64551;BME280;50945;44.472;-123.352;2022-11-15T07:30:05;101563.41;;;2.41;79.46
64551;BME280;50945;44.472;-123.352;2022-11-15T07:32:31;101565.25;;;2.41;79.82
64551;BME280;50945;44.472;-123.352;2022-11-15T07:34:58;101568.22;;;2.36;79.46
64551;BME280;50945;44.472;-123.352;2022-11-15T07:37:24;101562.06;;;2.34;79.48
64551;BME280;50945;44.472;-123.352;2022-11-15T07:39:50;101568.47;;;2.33;79.28
64551;BME280;50945;44.472;-123.352;2022-11-15T07:42:17;101572.97;;;2.33;79.21
64551;BME280;50945;44.472;-123.352;2022-11-15T07:45:01;101571.34;;;2.30;79.07
64551;BME280;50945;44.472;-123.352;2022-11-15T07:47:28;101583.09;;;2.29;79.44
64551;BME280;50945;44.472;-123.352;2022-11-15T07:49:55;101567.13;;;2.26;79.41
64551;BME280;50945;44.472;-123.352;2022-11-15T07:52:21;101579.75;;;2.25;79.50
64551;BME280;50945;44.472;-123.352;2022-11-15T07:54:48;101578.97;;;2.23;79.68
64551;BME280;50945;44.472;-123.352;2022-11-15T07:57:14;101570.41;;;2.17;79.48
64551;BME280;50945;44.472;-123.352;2022-11-15T07:59:40;101583.25;;;2.13;79.81
64551;BME280;50945;44.472;-123.352;2022-11-15T08:02:08;101588.84;;;2.10;79.58
64551;BME280;50945;44.472;-123.352;2022-11-15T08:04:35;101589.16;;;2.05;79.70
64551;BME280;50945;44.472;-123.352;2022-11-15T08:07:01;101585.78;;;2.02;80.16
64551;BME280;50945;44.472;-123.352;2022-11-15T08:09:28;101582.41;;;1.98;80.00
64551;BME280;50945;44.472;-123.352;2022-11-15T08:11:54;101586.09;;;1.97;80.24
64551;BME280;50945;44.472;-123.352;2022-11-15T08:14:20;101585.41;;;1.94;80.38
64551;BME280;50945;44.472;-123.352;2022-11-15T08:16:48;101591.00;;;1.90;80.57
64551;BME280;50945;44.472;-123.352;2022-11-15T08:19:14;101578.47;;;1.89;80.28
64551;BME280;50945;44.472;-123.352;2022-11-15T08:21:41;101589.28;;;1.89;79.80
64551;BME280;50945;44.472;-123.352;2022-11-15T08:24:12;101581.38;;;1.86;79.74
64551;BME280;50945;44.472;-123.352;2022-11-15T08:26:39;101581.50;;;1.85;80.06
64551;BME280;50945;44.472;-123.352;2022-11-15T08:29:05;101584.38;;;1.82;79.93
64551;BME280;50945;44.472;-123.352;2022-11-15T08:31:35;101581.38;;;1.72;80.18
64551;BME280;50945;44.472;-123.352;2022-11-15T08:34:05;101589.88;;;1.66;80.60
64551;BME280;50945;44.472;-123.352;2022-11-15T08:36:31;101583.06;;;1.60;80.08
64551;BME280;50945;44.472;-123.352;2022-11-15T08:38:58;101596.72;;;1.57;81.20
64551;BME280;50945;44.472;-123.352;2022-11-15T08:41:32;101597.06;;;1.51;80.87
64551;BME280;50945;44.472;-123.352;2022-11-15T08:43:59;101600.94;;;1.47;80.84
64551;BME280;50945;44.472;-123.352;2022-11-15T08:46:25;101591.50;;;1.40;80.91
64551;BME280;50945;44.472;-123.352;2022-11-15T08:48:51;101591.00;;;1.33;81.37
64551;BME280;50945;44.472;-123.352;2022-11-15T08:51:18;101595.94;;;1.26;81.65
64551;BME280;50945;44.472;-123.352;2022-11-15T08:53:44;101590.72;;;1.23;81.97
64551;BME280;50945;44.472;-123.352;2022-11-15T08:56:12;101591.75;;;1.21;81.64
64551;BME280;50945;44.472;-123.352;2022-11-15T08:58:39;101584.47;;;1.23;81.66
64551;BME280;50945;44.472;-123.352;2022-11-15T09:01:13;101586.19;;;1.24;81.85
64551;BME280;50945;44.472;-123.352;2022-11-15T09:03:41;101588.97;;;1.22;81.69
64551;BME280;50945;44.472;-123.352;2022-11-15T09:06:07;101581.00;;;1.21;82.01
64551;BME280;50945;44.472;-123.352;2022-11-15T09:08:34;101588.13;;;1.22;81.91
64551;BME280;50945;44.472;-123.352;2022-11-15T09:11:08;101584.56;;;1.21;81.56
64551;BME280;50945;44.472;-123.352;2022-11-15T09:13:36;101581.28;;;1.16;81.72
64551;BME280;50945;44.472;-123.352;2022-11-15T09:16:03;101578.69;;;1.14;81.37
64551;BME280;50945;44.472;-123.352;2022-11-15T09:18:30;101587.72;;;1.13;81.42
64551;BME280;50945;44.472;-123.352;2022-11-15T09:21:00;101589.56;;;1.13;81.14
64551;BME280;50945;44.472;-123.352;2022-11-15T09:23:28;101593.09;;;1.13;81.11
64551;BME280;50945;44.472;-123.352;2022-11-15T09:25:59;101593.09;;;1.13;81.21
64551;BME280;50945;44.472;-123.352;2022-11-15T09:28:27;101592.34;;;1.11;81.31
64551;BME280;50945;44.472;-123.352;2022-11-15T09:31:02;101596.19;;;1.07;81.62
64551;BME280;50945;44.472;-123.352;2022-11-15T09:33:28;101597.34;;;1.03;81.79
64551;BME280;50945;44.472;-123.352;2022-11-15T09:36:03;101604.75;;;1.00;81.88
64551;BME280;50945;44.472;-123.352;2022-11-15T09:38:31;101596.06;;;0.94;81.86
64551;BME280;50945;44.472;-123.352;2022-11-15T09:41:28;101600.69;;;0.92;81.99
64551;BME280;50945;44.472;-123.352;2022-11-15T09:47:27;101590.09;;;0.89;82.11
64551;BME280;50945;44.472;-123.352;2022-11-15T09:49:59;101593.91;;;0.85;81.87
64551;BME280;50945;44.472;-123.352;2022-11-15T09:52:27;101600.44;;;0.81;82.16
64551;BME280;50945;44.472;-123.352;2022-11-15T09:54:54;101597.16;;;0.76;82.08
64551;BME280;50945;44.472;-123.352;2022-11-15T09:57:40;101604.53;;;0.72;82.11
64551;BME280;50945;44.472;-123.352;2022-11-15T10:05:23;101608.03;;;0.59;82.93
64551;BME280;50945;44.472;-123.352;2022-11-15T10:13:01;101616.09;;;0.59;82.50
64551;BME280;50945;44.472;-123.352;2022-11-15T10:15:28;101609.00;;;0.57;82.48
64551;BME280;50945;44.472;-123.352;2022-11-15T10:20:54;101603.19;;;0.49;82.67
64551;BME280;50945;44.472;-123.352;2022-11-15T10:23:23;101609.56;;;0.48;82.77
64551;BME280;50945;44.472;-123.352;2022-11-15T10:26:01;101604.34;;;0.45;82.86
64551;BME280;50945;44.472;-123.352;2022-11-15T10:28:29;101602.78;;;0.41;82.75
64551;BME280;50945;44.472;-123.352;2022-11-15T10:30:57;101603.81;;;0.38;83.17
64551;BME280;50945;44.472;-123.352;2022-11-15T10:33:31;101609.19;;;0.38;82.92
64551;BME280;50945;44.472;-123.352;2022-11-15T10:41:17;101605.91;;;0.33;82.95
64551;BME280;50945;44.472;-123.352;2022-11-15T10:43:45;101615.81;;;0.33;82.52
64551;BME280;50945;44.472;-123.352;2022-11-15T10:46:22;101615.72;;;0.34;82.62
64551;BME280;50945;44.472;-123.352;2022-11-15T10:48:50;101618.50;;;0.33;82.61
64551;BME280;50945;44.472;-123.352;2022-11-15T10:51:27;101616.84;;;0.30;82.58
64551;BME280;50945;44.472;-123.352;2022-11-15T10:53:58;101616.06;;;0.28;82.60
64551;BME280;50945;44.472;-123.352;2022-11-15T10:56:27;101620.66;;;0.26;82.78
64551;BME280;50945;44.472;-123.352;2022-11-15T10:58:57;101616.25;;;0.25;82.65
64551;BME280;50945;44.472;-123.352;2022-11-15T11:01:25;101618.06;;;0.25;82.68
64551;BME280;50945;44.472;-123.352;2022-11-15T11:04:04;101616.06;;;0.28;82.63
64551;BME280;50945;44.472;-123.352;2022-11-15T11:06:52;101614.25;;;0.29;82.47
64551;BME280;50945;44.472;-123.352;2022-11-15T11:09:37;101620.56;;;0.28;82.36
64551;BME280;50945;44.472;-123.352;2022-11-15T11:12:06;101626.03;;;0.26;82.13
64551;BME280;50945;44.472;-123.352;2022-11-15T11:14:38;101623.25;;;0.28;82.21
64551;BME280;50945;44.472;-123.352;2022-11-15T11:17:19;101633.09;;;0.29;82.24
64551;BME280;50945;44.472;-123.352;2022-11-15T11:25:30;101618.66;;;0.14;82.31
64551;BME280;50945;44.472;-123.352;2022-11-15T11:28:25;101630.19;;;0.16;82.19
64551;BME280;50945;44.472;-123.352;2022-11-15T11:33:50;101632.72;;;0.19;82.04
64551;BME280;50945;44.472;-123.352;2022-11-15T11:38:56;101633.78;;;0.16;81.94
64551;BME280;50945;44.472;-123.352;2022-11-15T11:44:16;101645.84;;;0.09;81.99
64551;BME280;50945;44.472;-123.352;2022-11-15T11:57:46;101667.72;;;-0.14;83.46
64551;BME280;50945;44.472;-123.352;2022-11-15T12:00:19;101672.00;;;-0.10;82.81
64551;BME280;50945;44.472;-123.352;2022-11-15T12:03:42;101670.09;;;-0.08;82.73
64551;BME280;50945;44.472;-123.352;2022-11-15T12:06:04;101673.47;;;-0.05;82.87
64551;BME280;50945;44.472;-123.352;2022-11-15T12:14:16;101674.44;;;0.10;82.83
64551;BME280;50945;44.472;-123.352;2022-11-15T12:16:46;101670.44;;;0.17;82.49
64551;BME280;50945;44.472;-123.352;2022-11-15T12:19:13;101685.41;;;0.23;82.39
64551;BME280;50945;44.472;-123.352;2022-11-15T12:22:02;101675.44;;;0.25;82.01
64551;BME280;50945;44.472;-123.352;2022-11-15T12:27:51;101680.03;;;0.23;81.84
64551;BME280;50945;44.472;-123.352;2022-11-15T12:30:21;101692.88;;;0.18;82.21
64551;BME280;50945;44.472;-123.352;2022-11-15T12:32:57;101697.53;;;0.14;81.93
64551;BME280;50945;44.472;-123.352;2022-11-15T12:35:37;101702.31;;;0.09;82.55
64551;BME280;50945;44.472;-123.352;2022-11-15T12:38:04;101706.09;;;0.05;82.59
64551;BME280;50945;44.472;-123.352;2022-11-15T12:40:34;101704.44;;;0.03;82.48
64551;BME280;50945;44.472;-123.352;2022-11-15T12:43:42;101700.13;;;0.00;82.13
64551;BME280;50945;44.472;-123.352;2022-11-15T12:51:19;101721.44;;;0.03;82.49
64551;BME280;50945;44.472;-123.352;2022-11-15T12:53:45;101723.81;;;0.09;82.25
64551;BME280;50945;44.472;-123.352;2022-11-15T12:58:58;101726.31;;;0.12;81.91
64551;BME280;50945;44.472;-123.352;2022-11-15T13:04:22;101726.66;;;0.06;82.46
64551;BME280;50945;44.472;-123.352;2022-11-15T13:07:01;101731.97;;;0.08;82.48
64551;BME280;50945;44.472;-123.352;2022-11-15T13:12:04;101736.13;;;0.13;82.08
64551;BME280;50945;44.472;-123.352;2022-11-15T13:17:51;101730.41;;;0.19;81.67
64551;BME280;50945;44.472;-123.352;2022-11-15T13:20:29;101739.44;;;0.18;81.79
64551;BME280;50945;44.472;-123.352;2022-11-15T13:31:34;101747.31;;;0.06;81.92
64551;BME280;50945;44.472;-123.352;2022-11-15T13:33:50;101750.41;;;-0.02;81.97
64551;BME280;50945;44.472;-123.352;2022-11-15T13:36:27;101751.59;;;-0.08;82.10
64551;BME280;50945;44.472;-123.352;2022-11-15T13:39:12;101751.25;;;-0.17;82.42
64551;BME280;50945;44.472;-123.352;2022-11-15T13:41:48;101762.22;;;-0.22;82.61
64551;BME280;50945;44.472;-123.352;2022-11-15T13:44:33;101750.59;;;-0.23;82.45
64551;BME280;50945;44.472;-123.352;2022-11-15T13:49:34;101755.72;;;-0.18;82.61
64551;BME280;50945;44.472;-123.352;2022-11-15T13:52:03;101749.25;;;-0.14;82.42
64551;BME280;50945;44.472;-123.352;2022-11-15T13:54:46;101755.34;;;-0.10;82.00
64551;BME280;50945;44.472;-123.352;2022-11-15T13:57:19;101765.91;;;-0.07;82.31
64551;BME280;50945;44.472;-123.352;2022-11-15T13:59:51;101773.97;;;-0.07;82.18
64551;BME280;50945;44.472;-123.352;2022-11-15T14:02:52;101767.81;;;-0.09;82.20
64551;BME280;50945;44.472;-123.352;2022-11-15T14:05:18;101771.47;;;-0.10;82.13
64551;BME280;50945;44.472;-123.352;2022-11-15T14:07:55;101776.28;;;-0.17;81.94
64551;BME280;50945;44.472;-123.352;2022-11-15T14:12:57;101772.41;;;-0.29;82.40
64551;BME280;50945;44.472;-123.352;2022-11-15T14:15:33;101773.53;;;-0.33;82.60
64551;BME280;50945;44.472;-123.352;2022-11-15T14:18:01;101777.00;;;-0.31;82.48
64551;BME280;50945;44.472;-123.352;2022-11-15T14:20:33;101783.00;;;-0.26;82.08
64551;BME280;50945;44.472;-123.352;2022-11-15T14:23:25;101786.47;;;-0.24;81.82
64551;BME280;50945;44.472;-123.352;2022-11-15T14:25:56;101791.47;;;-0.33;81.43
64551;BME280;50945;44.472;-123.352;2022-11-15T14:30:53;101796.53;;;-0.45;82.52
64551;BME280;50945;44.472;-123.352;2022-11-15T14:35:46;101797.72;;;-0.50;83.52
64551;BME280;50945;44.472;-123.352;2022-11-15T14:38:13;101787.94;;;-0.51;83.53
64551;BME280;50945;44.472;-123.352;2022-11-15T14:40:40;101794.16;;;-0.51;83.39
64551;BME280;50945;44.472;-123.352;2022-11-15T14:43:11;101801.50;;;-0.54;83.22
64551;BME280;50945;44.472;-123.352;2022-11-15T14:45:38;101801.34;;;-0.51;83.25
64551;BME280;50945;44.472;-123.352;2022-11-15T14:48:04;101797.50;;;-0.46;82.97
64551;BME280;50945;44.472;-123.352;2022-11-15T14:50:32;101790.13;;;-0.42;82.83
64551;BME280;50945;44.472;-123.352;2022-11-15T14:52:58;101798.06;;;-0.39;82.57
64551;BME280;50945;44.472;-123.352;2022-11-15T14:55:31;101801.53;;;-0.37;82.51